sensor_id;sensor_type;location;lat;lon;timestamp;pressure;altitude;pressure_sealevel;temperature;humidity
39223;BME280;24936;46.328;11.026;2023-04-04T00:00:08;94115.13;;;1.06;36.16
39223;BME280;24936;46.328;11.026;2023-04-04T00:02:33;94116.03;;;1.63;33.87
39223;BME280;24936;46.328;11.026;2023-04-04T00:05:00;94107.91;;;1.69;34.48
39223;BME280;24936;46.328;11.026;2023-04-04T00:07:25;94111.69;;;1.78;32.99
39223;BME280;24936;46.328;11.026;2023-04-04T00:09:51;94112.28;;;1.96;32.25
39223;BME280;24936;46.328;11.026;2023-04-04T00:12:16;94106.59;;;1.62;34.36
39223;BME280;24936;46.328;11.026;2023-04-04T00:14:42;94103.19;;;1.47;34.77
39223;BME280;24936;46.328;11.026;2023-04-04T00:17:08;94104.28;;;1.57;34.14
39223;BME280;24936;46.328;11.026;2023-04-04T00:19:33;94106.97;;;1.70;33.33
39223;BME280;24936;46.328;11.026;2023-04-04T00:21:59;94100.53;;;1.90;32.44
39223;BME280;24936;46.328;11.026;2023-04-04T00:24:25;94101.25;;;1.36;33.95
39223;BME280;24936;46.328;11.026;2023-04-04T00:26:50;94101.63;;;1.44;33.79
39223;BME280;24936;46.328;11.026;2023-04-04T00:29:16;94103.22;;;1.89;32.76
39223;BME280;24936;46.328;11.026;2023-04-04T00:31:41;94105.88;;;1.60;33.78
39223;BME280;24936;46.328;11.026;2023-04-04T00:34:07;94092.91;;;1.45;34.61
39223;BME280;24936;46.328;11.026;2023-04-04T00:36:32;94101.50;;;1.02;35.42
39223;BME280;24936;46.328;11.026;2023-04-04T00:38:58;94088.84;;;0.98;35.46
39223;BME280;24936;46.328;11.026;2023-04-04T00:41:23;94096.72;;;0.66;36.52
39223;BME280;24936;46.328;11.026;2023-04-04T00:43:48;94102.25;;;1.04;34.79
39223;BME280;24936;46.328;11.026;2023-04-04T00:46:14;94091.78;;;1.20;34.43
39223;BME280;24936;46.328;11.026;2023-04-04T00:48:43;94097.63;;;0.95;35.54
39223;BME280;24936;46.328;11.026;2023-04-04T00:51:08;94085.16;;;1.16;34.61
39223;BME280;24936;46.328;11.026;2023-04-04T00:53:34;94078.47;;;1.12;35.65
39223;BME280;24936;46.328;11.026;2023-04-04T00:56:00;94084.22;;;1.03;35.52
39223;BME280;24936;46.328;11.026;2023-04-04T00:58:25;94077.66;;;0.67;36.25
39223;BME280;24936;46.328;11.026;2023-04-04T01:00:51;94088.41;;;0.60;36.98
39223;BME280;24936;46.328;11.026;2023-04-04T01:03:17;94089.56;;;0.40;37.18
39223;BME280;24936;46.328;11.026;2023-04-04T01:05:43;94088.69;;;-0.07;40.25
39223;BME280;24936;46.328;11.026;2023-04-04T01:08:08;94089.56;;;0.24;38.33
39223;BME280;24936;46.328;11.026;2023-04-04T01:10:34;94090.56;;;-0.09;40.40
39223;BME280;24936;46.328;11.026;2023-04-04T01:13:00;94087.16;;;0.21;38.70
39223;BME280;24936;46.328;11.026;2023-04-04T01:15:25;94087.06;;;-0.40;39.69
39223;BME280;24936;46.328;11.026;2023-04-04T01:17:56;94091.38;;;-0.56;41.51
39223;BME280;24936;46.328;11.026;2023-04-04T01:20:24;94081.69;;;-0.53;40.94
39223;BME280;24936;46.328;11.026;2023-04-04T01:22:51;94085.72;;;-0.31;41.98
39223;BME280;24936;46.328;11.026;2023-04-04T01:25:18;94095.47;;;-0.52;42.28
39223;BME280;24936;46.328;11.026;2023-04-04T01:27:43;94084.06;;;-0.32;38.89
39223;BME280;24936;46.328;11.026;2023-04-04T01:30:10;94090.03;;;-0.97;43.09
39223;BME280;24936;46.328;11.026;2023-04-04T01:32:48;94090.38;;;-1.03;43.21
39223;BME280;24936;46.328;11.026;2023-04-04T01:35:27;94084.59;;;-1.09;42.60
39223;BME280;24936;46.328;11.026;2023-04-04T01:40:31;94081.97;;;-1.42;45.52
39223;BME280;24936;46.328;11.026;2023-04-04T01:43:01;94088.34;;;-1.14;43.18
39223;BME280;24936;46.328;11.026;2023-04-04T01:45:27;94087.28;;;-1.45;46.86
39223;BME280;24936;46.328;11.026;2023-04-04T01:47:53;94087.75;;;-1.90;50.13
39223;BME280;24936;46.328;11.026;2023-04-04T01:50:19;94097.00;;;-0.82;42.74
39223;BME280;24936;46.328;11.026;2023-04-04T01:52:44;94100.72;;;-1.03;44.31
39223;BME280;24936;46.328;11.026;2023-04-04T01:55:11;94087.75;;;-0.86;41.85
39223;BME280;24936;46.328;11.026;2023-04-04T01:57:36;94086.00;;;-1.19;44.85
39223;BME280;24936;46.328;11.026;2023-04-04T02:00:02;94086.03;;;-1.03;43.84
39223;BME280;24936;46.328;11.026;2023-04-04T02:02:29;94089.94;;;-1.12;44.41
39223;BME280;24936;46.328;11.026;2023-04-04T02:04:54;94091.00;;;-0.82;42.90
39223;BME280;24936;46.328;11.026;2023-04-04T02:07:20;94094.38;;;-0.16;39.52
39223;BME280;24936;46.328;11.026;2023-04-04T02:09:45;94094.97;;;-0.43;39.83
39223;BME280;24936;46.328;11.026;2023-04-04T02:12:10;94092.13;;;-0.54;41.36
39223;BME280;24936;46.328;11.026;2023-04-04T02:14:36;94089.84;;;-0.77;44.54
39223;BME280;24936;46.328;11.026;2023-04-04T02:17:02;94090.09;;;-0.81;42.56
39223;BME280;24936;46.328;11.026;2023-04-04T02:19:27;94086.78;;;-1.01;42.48
39223;BME280;24936;46.328;11.026;2023-04-04T02:21:53;94078.50;;;-0.74;41.50
39223;BME280;24936;46.328;11.026;2023-04-04T02:24:18;94085.22;;;-0.38;40.34
39223;BME280;24936;46.328;11.026;2023-04-04T02:26:44;94088.88;;;-0.42;39.93
39223;BME280;24936;46.328;11.026;2023-04-04T02:29:09;94092.88;;;-0.20;39.76
39223;BME280;24936;46.328;11.026;2023-04-04T02:31:34;94088.44;;;0.14;39.61
39223;BME280;24936;46.328;11.026;2023-04-04T02:34:00;94091.38;;;-0.08;38.84
39223;BME280;24936;46.328;11.026;2023-04-04T02:36:25;94090.09;;;0.15;38.13
39223;BME280;24936;46.328;11.026;2023-04-04T02:38:51;94089.88;;;0.04;39.62
39223;BME280;24936;46.328;11.026;2023-04-04T02:41:17;94093.53;;;-0.01;37.57
39223;BME280;24936;46.328;11.026;2023-04-04T02:43:42;94086.28;;;0.37;37.12
39223;BME280;24936;46.328;11.026;2023-04-04T02:46:07;94087.34;;;0.18;38.82
39223;BME280;24936;46.328;11.026;2023-04-04T02:51:54;94094.41;;;0.30;36.77
39223;BME280;24936;46.328;11.026;2023-04-04T02:54:20;94085.69;;;0.17;36.82
39223;BME280;24936;46.328;11.026;2023-04-04T02:56:45;94089.16;;;0.63;35.19
39223;BME280;24936;46.328;11.026;2023-04-04T02:59:11;94088.59;;;0.27;36.96
39223;BME280;24936;46.328;11.026;2023-04-04T03:01:36;94085.28;;;-0.07;38.01
39223;BME280;24936;46.328;11.026;2023-04-04T03:04:02;94081.53;;;0.29;36.57
39223;BME280;24936;46.328;11.026;2023-04-04T03:06:30;94089.72;;;0.07;37.26
39223;BME280;24936;46.328;11.026;2023-04-04T03:08:57;94077.66;;;0.22;36.10
39223;BME280;24936;46.328;11.026;2023-04-04T03:11:22;94086.75;;;0.13;37.96
39223;BME280;24936;46.328;11.026;2023-04-04T03:13:48;94084.34;;;0.10;38.88
39223;BME280;24936;46.328;11.026;2023-04-04T03:16:15;94092.63;;;0.01;38.37
39223;BME280;24936;46.328;11.026;2023-04-04T03:18:42;94081.81;;;-0.22;38.62
39223;BME280;24936;46.328;11.026;2023-04-04T03:21:08;94082.28;;;-0.32;38.92
39223;BME280;24936;46.328;11.026;2023-04-04T03:23:34;94081.88;;;-0.40;40.19
39223;BME280;24936;46.328;11.026;2023-04-04T03:25:59;94078.03;;;-0.49;40.68
39223;BME280;24936;46.328;11.026;2023-04-04T03:28:25;94080.94;;;-0.71;41.34
39223;BME280;24936;46.328;11.026;2023-04-04T03:30:50;94075.06;;;-0.90;41.80
39223;BME280;24936;46.328;11.026;2023-04-04T03:33:15;94069.09;;;-0.27;38.11
39223;BME280;24936;46.328;11.026;2023-04-04T03:35:41;94079.53;;;-0.28;37.79
39223;BME280;24936;46.328;11.026;2023-04-04T03:38:07;94073.00;;;-0.04;37.61
39223;BME280;24936;46.328;11.026;2023-04-04T03:40:33;94087.38;;;-0.14;38.50
39223;BME280;24936;46.328;11.026;2023-04-04T03:42:59;94075.22;;;-0.28;39.34
39223;BME280;24936;46.328;11.026;2023-04-04T03:45:26;94074.97;;;-0.23;38.65
39223;BME280;24936;46.328;11.026;2023-04-04T03:47:52;94072.19;;;-0.20;38.82
39223;BME280;24936;46.328;11.026;2023-04-04T03:50:17;94075.28;;;-0.29;38.35
39223;BME280;24936;46.328;11.026;2023-04-04T03:52:42;94068.59;;;-0.34;37.75
39223;BME280;24936;46.328;11.026;2023-04-04T03:55:08;94066.00;;;-0.34;38.54
39223;BME280;24936;46.328;11.026;2023-04-04T03:57:35;94065.53;;;-0.24;38.77
39223;BME280;24936;46.328;11.026;2023-04-04T04:00:01;94073.00;;;-0.04;38.50
39223;BME280;24936;46.328;11.026;2023-04-04T04:02:28;94070.78;;;0.21;37.86
39223;BME280;24936;46.328;11.026;2023-04-04T04:04:54;94063.25;;;0.32;37.05
39223;BME280;24936;46.328;11.026;2023-04-04T04:07:19;94073.47;;;0.19;37.24
39223;BME280;24936;46.328;11.026;2023-04-04T04:09:45;94074.03;;;0.24;37.40
39223;BME280;24936;46.328;11.026;2023-04-04T04:12:11;94059.91;;;-0.01;38.69
39223;BME280;24936;46.328;11.026;2023-04-04T04:14:36;94069.38;;;-0.16;39.08
39223;BME280;24936;46.328;11.026;2023-04-04T04:17:02;94073.69;;;-0.16;38.36
39223;BME280;24936;46.328;11.026;2023-04-04T04:19:28;94081.72;;;-0.21;38.67
39223;BME280;24936;46.328;11.026;2023-04-04T04:21:53;94071.34;;;-0.21;38.39
39223;BME280;24936;46.328;11.026;2023-04-04T04:24:18;94087.06;;;-0.56;38.87
39223;BME280;24936;46.328;11.026;2023-04-04T04:26:44;94086.88;;;-1.02;40.44
39223;BME280;24936;46.328;11.026;2023-04-04T04:29:10;94078.63;;;-1.44;42.61
39223;BME280;24936;46.328;11.026;2023-04-04T04:31:36;94080.00;;;-1.72;44.49
39223;BME280;24936;46.328;11.026;2023-04-04T04:34:04;94080.78;;;-1.52;42.25
39223;BME280;24936;46.328;11.026;2023-04-04T04:36:30;94078.13;;;-1.51;42.54
39223;BME280;24936;46.328;11.026;2023-04-04T04:38:55;94080.94;;;-1.04;41.16
39223;BME280;24936;46.328;11.026;2023-04-04T04:41:21;94070.34;;;-0.82;40.95
39223;BME280;24936;46.328;11.026;2023-04-04T04:43:46;94057.09;;;-0.44;39.35
39223;BME280;24936;46.328;11.026;2023-04-04T04:46:12;94063.13;;;-0.43;39.42
39223;BME280;24936;46.328;11.026;2023-04-04T04:48:38;94064.19;;;-0.32;38.74
39223;BME280;24936;46.328;11.026;2023-04-04T04:51:04;94070.88;;;-0.27;38.59
39223;BME280;24936;46.328;11.026;2023-04-04T04:53:30;94072.94;;;-0.34;38.91
39223;BME280;24936;46.328;11.026;2023-04-04T04:55:55;94082.34;;;-0.65;39.66
39223;BME280;24936;46.328;11.026;2023-04-04T04:58:21;94089.63;;;-0.89;40.25
39223;BME280;24936;46.328;11.026;2023-04-04T05:00:48;94084.47;;;-1.23;42.69
39223;BME280;24936;46.328;11.026;2023-04-04T05:03:14;94087.50;;;-1.15;40.93
39223;BME280;24936;46.328;11.026;2023-04-04T05:05:41;94081.50;;;-0.82;40.85
39223;BME280;24936;46.328;11.026;2023-04-04T05:08:07;94083.75;;;-0.75;39.09
39223;BME280;24936;46.328;11.026;2023-04-04T05:10:32;94088.94;;;-1.09;42.43
39223;BME280;24936;46.328;11.026;2023-04-04T05:12:58;94082.00;;;-1.09;40.48
39223;BME280;24936;46.328;11.026;2023-04-04T05:15:23;94086.84;;;-0.69;38.74
39223;BME280;24936;46.328;11.026;2023-04-04T05:17:50;94087.47;;;-0.48;39.16
39223;BME280;24936;46.328;11.026;2023-04-04T05:20:16;94084.72;;;-0.28;38.66
39223;BME280;24936;46.328;11.026;2023-04-04T05:22:45;94084.22;;;-0.51;39.04
39223;BME280;24936;46.328;11.026;2023-04-04T05:25:11;94093.19;;;-0.74;39.16
39223;BME280;24936;46.328;11.026;2023-04-04T05:27:38;94089.94;;;-1.12;41.05
39223;BME280;24936;46.328;11.026;2023-04-04T05:30:04;94091.94;;;-1.01;39.85
39223;BME280;24936;46.328;11.026;2023-04-04T05:32:30;94087.00;;;-0.72;38.98
39223;BME280;24936;46.328;11.026;2023-04-04T05:34:55;94099.28;;;-1.09;40.11
39223;BME280;24936;46.328;11.026;2023-04-04T05:37:21;94097.03;;;-1.33;42.10
39223;BME280;24936;46.328;11.026;2023-04-04T05:39:46;94092.75;;;-1.16;37.15
39223;BME280;24936;46.328;11.026;2023-04-04T05:42:12;94095.28;;;-0.99;39.02
39223;BME280;24936;46.328;11.026;2023-04-04T05:44:37;94089.59;;;-1.39;39.69
39223;BME280;24936;46.328;11.026;2023-04-04T05:47:03;94092.78;;;-1.51;43.39
39223;BME280;24936;46.328;11.026;2023-04-04T05:49:28;94090.41;;;-1.39;41.17
39223;BME280;24936;46.328;11.026;2023-04-04T05:51:54;94094.19;;;-0.77;39.69
39223;BME280;24936;46.328;11.026;2023-04-04T05:54:22;94099.13;;;-0.56;38.62
39223;BME280;24936;46.328;11.026;2023-04-04T05:56:47;94099.00;;;0.25;36.86
39223;BME280;24936;46.328;11.026;2023-04-04T05:59:13;94108.44;;;0.26;36.62
39223;BME280;24936;46.328;11.026;2023-04-04T06:01:38;94096.28;;;0.12;36.50
39223;BME280;24936;46.328;11.026;2023-04-04T06:04:04;94097.91;;;0.60;32.94
39223;BME280;24936;46.328;11.026;2023-04-04T06:06:31;94103.47;;;0.54;33.85
39223;BME280;24936;46.328;11.026;2023-04-04T06:08:56;94099.53;;;0.77;31.24
39223;BME280;24936;46.328;11.026;2023-04-04T06:11:22;94100.72;;;0.71;34.48
39223;BME280;24936;46.328;11.026;2023-04-04T06:13:48;94098.97;;;0.72;34.08
39223;BME280;24936;46.328;11.026;2023-04-04T06:16:13;94094.56;;;0.88;31.46
39223;BME280;24936;46.328;11.026;2023-04-04T06:18:38;94087.34;;;1.22;30.89
39223;BME280;24936;46.328;11.026;2023-04-04T06:21:04;94091.41;;;1.56;30.84
39223;BME280;24936;46.328;11.026;2023-04-04T06:23:30;94086.59;;;1.49;31.01
39223;BME280;24936;46.328;11.026;2023-04-04T06:25:55;94091.13;;;1.75;30.09
39223;BME280;24936;46.328;11.026;2023-04-04T06:28:21;94086.75;;;1.75;29.85
39223;BME280;24936;46.328;11.026;2023-04-04T06:30:46;94084.16;;;1.61;30.53
39223;BME280;24936;46.328;11.026;2023-04-04T06:33:12;94086.03;;;1.73;30.00
39223;BME280;24936;46.328;11.026;2023-04-04T06:35:37;94080.72;;;1.75;29.84
39223;BME280;24936;46.328;11.026;2023-04-04T06:38:03;94083.25;;;1.62;30.48
39223;BME280;24936;46.328;11.026;2023-04-04T06:40:38;94086.56;;;1.78;30.34
39223;BME280;24936;46.328;11.026;2023-04-04T06:43:04;94086.13;;;1.57;30.41
39223;BME280;24936;46.328;11.026;2023-04-04T06:45:40;94076.69;;;1.98;29.45
39223;BME280;24936;46.328;11.026;2023-04-04T06:48:05;94072.06;;;1.89;29.39
39223;BME280;24936;46.328;11.026;2023-04-04T06:50:30;94061.81;;;1.73;29.57
39223;BME280;24936;46.328;11.026;2023-04-04T06:53:02;94070.34;;;2.02;28.79
39223;BME280;24936;46.328;11.026;2023-04-04T06:55:27;94079.06;;;2.16;29.03
39223;BME280;24936;46.328;11.026;2023-04-04T06:57:53;94072.19;;;2.14;28.89
39223;BME280;24936;46.328;11.026;2023-04-04T07:00:19;94065.34;;;2.13;29.02
39223;BME280;24936;46.328;11.026;2023-04-04T07:02:45;94061.41;;;2.21;28.89
39223;BME280;24936;46.328;11.026;2023-04-04T07:05:11;94071.03;;;2.46;29.00
39223;BME280;24936;46.328;11.026;2023-04-04T07:07:38;94063.25;;;2.59;27.76
39223;BME280;24936;46.328;11.026;2023-04-04T07:10:03;94069.41;;;2.71;27.12
39223;BME280;24936;46.328;11.026;2023-04-04T07:12:29;94070.88;;;2.75;26.81
39223;BME280;24936;46.328;11.026;2023-04-04T07:14:55;94065.38;;;2.93;26.16
39223;BME280;24936;46.328;11.026;2023-04-04T07:17:21;94055.59;;;2.96;28.02
39223;BME280;24936;46.328;11.026;2023-04-04T07:19:46;94060.47;;;3.14;26.69
39223;BME280;24936;46.328;11.026;2023-04-04T07:22:12;94048.22;;;2.90;28.00
39223;BME280;24936;46.328;11.026;2023-04-04T07:24:38;94053.41;;;2.77;27.63
39223;BME280;24936;46.328;11.026;2023-04-04T07:27:05;94049.97;;;2.77;27.37
39223;BME280;24936;46.328;11.026;2023-04-04T07:29:30;94040.84;;;2.84;26.06
39223;BME280;24936;46.328;11.026;2023-04-04T07:31:56;94043.44;;;2.97;26.13
39223;BME280;24936;46.328;11.026;2023-04-04T07:34:21;94046.25;;;3.06;26.48
39223;BME280;24936;46.328;11.026;2023-04-04T07:36:47;94045.34;;;3.45;26.66
39223;BME280;24936;46.328;11.026;2023-04-04T07:39:12;94048.34;;;3.64;25.69
39223;BME280;24936;46.328;11.026;2023-04-04T07:41:37;94045.63;;;3.66;23.96
39223;BME280;24936;46.328;11.026;2023-04-04T07:44:03;94049.97;;;3.78;23.95
39223;BME280;24936;46.328;11.026;2023-04-04T07:46:28;94031.38;;;3.96;23.97
39223;BME280;24936;46.328;11.026;2023-04-04T07:48:53;94029.66;;;4.08;21.67
39223;BME280;24936;46.328;11.026;2023-04-04T07:51:19;94031.75;;;4.03;22.75
39223;BME280;24936;46.328;11.026;2023-04-04T07:53:55;94034.72;;;4.22;20.50
39223;BME280;24936;46.328;11.026;2023-04-04T07:56:20;94037.41;;;4.21;22.44
39223;BME280;24936;46.328;11.026;2023-04-04T07:58:46;94035.88;;;4.54;23.13
39223;BME280;24936;46.328;11.026;2023-04-04T08:01:12;94029.00;;;5.68;19.79
39223;BME280;24936;46.328;11.026;2023-04-04T08:03:37;94021.84;;;6.37;20.22
39223;BME280;24936;46.328;11.026;2023-04-04T08:06:02;94023.22;;;6.52;20.36
39223;BME280;24936;46.328;11.026;2023-04-04T08:08:28;94013.31;;;6.56;19.64
39223;BME280;24936;46.328;11.026;2023-04-04T08:10:54;94015.75;;;6.48;19.90
39223;BME280;24936;46.328;11.026;2023-04-04T08:13:19;94015.88;;;6.14;19.02
39223;BME280;24936;46.328;11.026;2023-04-04T08:15:45;94024.09;;;6.41;17.78
39223;BME280;24936;46.328;11.026;2023-04-04T08:18:10;94021.97;;;6.89;17.76
39223;BME280;24936;46.328;11.026;2023-04-04T08:20:39;94010.72;;;6.77;18.18
39223;BME280;24936;46.328;11.026;2023-04-04T08:23:04;94010.50;;;6.69;17.48
39223;BME280;24936;46.328;11.026;2023-04-04T08:25:30;94004.69;;;7.08;17.09
39223;BME280;24936;46.328;11.026;2023-04-04T08:27:55;94004.09;;;7.56;16.53
39223;BME280;24936;46.328;11.026;2023-04-04T08:30:24;94006.22;;;7.82;16.25
39223;BME280;24936;46.328;11.026;2023-04-04T08:32:49;93987.47;;;7.77;17.24
39223;BME280;24936;46.328;11.026;2023-04-04T08:35:15;93991.53;;;8.01;16.77
39223;BME280;24936;46.328;11.026;2023-04-04T08:37:44;93990.19;;;8.55;16.67
39223;BME280;24936;46.328;11.026;2023-04-04T08:40:10;93982.34;;;9.13;16.04
39223;BME280;24936;46.328;11.026;2023-04-04T08:42:39;93982.78;;;9.08;15.08
39223;BME280;24936;46.328;11.026;2023-04-04T08:45:06;93973.19;;;9.83;14.82
39223;BME280;24936;46.328;11.026;2023-04-04T08:47:34;93966.31;;;11.43;14.77
39223;BME280;24936;46.328;11.026;2023-04-04T08:50:03;93972.81;;;12.00;14.27
39223;BME280;24936;46.328;11.026;2023-04-04T08:52:29;93972.00;;;11.65;12.73
39223;BME280;24936;46.328;11.026;2023-04-04T08:54:57;93959.34;;;13.27;13.12
39223;BME280;24936;46.328;11.026;2023-04-04T08:57:22;93968.31;;;12.93;12.98
39223;BME280;24936;46.328;11.026;2023-04-04T08:59:48;93967.25;;;11.68;11.20
39223;BME280;24936;46.328;11.026;2023-04-04T09:02:18;93958.03;;;12.23;12.36
39223;BME280;24936;46.328;11.026;2023-04-04T09:04:47;93962.38;;;12.66;11.11
39223;BME280;24936;46.328;11.026;2023-04-04T09:07:14;93943.72;;;12.76;11.52
39223;BME280;24936;46.328;11.026;2023-04-04T09:09:43;93950.00;;;12.58;11.23
39223;BME280;24936;46.328;11.026;2023-04-04T09:12:12;93954.25;;;13.17;10.19
39223;BME280;24936;46.328;11.026;2023-04-04T09:14:38;93944.22;;;12.54;10.36
39223;BME280;24936;46.328;11.026;2023-04-04T09:17:05;93942.22;;;12.90;10.30
39223;BME280;24936;46.328;11.026;2023-04-04T09:19:32;93937.19;;;13.36;10.52
39223;BME280;24936;46.328;11.026;2023-04-04T09:21:58;93941.75;;;12.78;10.54
39223;BME280;24936;46.328;11.026;2023-04-04T09:24:23;93940.59;;;12.80;11.12
39223;BME280;24936;46.328;11.026;2023-04-04T09:26:51;93950.78;;;12.34;10.75
39223;BME280;24936;46.328;11.026;2023-04-04T09:29:18;93940.56;;;13.70;10.45
39223;BME280;24936;46.328;11.026;2023-04-04T09:31:44;93939.59;;;14.02;10.73
39223;BME280;24936;46.328;11.026;2023-04-04T09:34:12;93939.13;;;13.99;11.46
39223;BME280;24936;46.328;11.026;2023-04-04T09:36:39;93934.56;;;13.84;9.99
39223;BME280;24936;46.328;11.026;2023-04-04T09:39:06;93930.94;;;15.02;10.07
39223;BME280;24936;46.328;11.026;2023-04-04T09:41:32;93922.53;;;14.60;9.96
39223;BME280;24936;46.328;11.026;2023-04-04T09:43:59;93913.19;;;15.40;9.94
39223;BME280;24936;46.328;11.026;2023-04-04T09:46:25;93925.59;;;14.72;10.18
39223;BME280;24936;46.328;11.026;2023-04-04T09:48:52;93921.56;;;14.06;9.87
39223;BME280;24936;46.328;11.026;2023-04-04T09:51:20;93911.94;;;13.82;10.36
39223;BME280;24936;46.328;11.026;2023-04-04T09:53:49;93906.63;;;13.42;10.99
39223;BME280;24936;46.328;11.026;2023-04-04T09:56:15;93919.63;;;14.23;10.57
39223;BME280;24936;46.328;11.026;2023-04-04T09:58:45;93899.72;;;14.50;10.24
39223;BME280;24936;46.328;11.026;2023-04-04T10:01:11;93901.88;;;14.55;10.21
39223;BME280;24936;46.328;11.026;2023-04-04T10:03:38;93906.03;;;14.73;11.48
39223;BME280;24936;46.328;11.026;2023-04-04T10:06:07;93902.75;;;15.09;9.64
39223;BME280;24936;46.328;11.026;2023-04-04T10:08:39;93905.09;;;14.65;10.06
39223;BME280;24936;46.328;11.026;2023-04-04T10:11:05;93901.00;;;14.40;10.17
39223;BME280;24936;46.328;11.026;2023-04-04T10:13:33;93895.59;;;14.94;10.53
39223;BME280;24936;46.328;11.026;2023-04-04T10:16:05;93887.53;;;13.95;10.50
39223;BME280;24936;46.328;11.026;2023-04-04T10:18:34;93889.19;;;14.27;10.55
39223;BME280;24936;46.328;11.026;2023-04-04T10:21:05;93882.34;;;15.54;9.64
39223;BME280;24936;46.328;11.026;2023-04-04T10:23:31;93883.28;;;16.35;9.80
39223;BME280;24936;46.328;11.026;2023-04-04T10:25:59;93892.38;;;15.74;9.56
39223;BME280;24936;46.328;11.026;2023-04-04T10:28:25;93885.91;;;15.47;10.87
39223;BME280;24936;46.328;11.026;2023-04-04T10:33:50;93877.69;;;17.65;9.64
39223;BME280;24936;46.328;11.026;2023-04-04T10:36:21;93863.28;;;16.39;10.73
39223;BME280;24936;46.328;11.026;2023-04-04T10:39:07;93877.97;;;16.13;10.00
39223;BME280;24936;46.328;11.026;2023-04-04T10:41:35;93881.06;;;15.65;9.30
39223;BME280;24936;46.328;11.026;2023-04-04T10:44:11;93870.13;;;16.48;8.84
39223;BME280;24936;46.328;11.026;2023-04-04T10:46:40;93873.41;;;16.29;8.63
39223;BME280;24936;46.328;11.026;2023-04-04T10:49:06;93878.31;;;15.73;9.96
39223;BME280;24936;46.328;11.026;2023-04-04T10:51:32;93876.34;;;15.31;10.01
39223;BME280;24936;46.328;11.026;2023-04-04T10:53:58;93862.50;;;16.39;10.23
39223;BME280;24936;46.328;11.026;2023-04-04T10:56:24;93873.28;;;16.59;8.89
39223;BME280;24936;46.328;11.026;2023-04-04T10:58:50;93870.63;;;16.59;10.32
39223;BME280;24936;46.328;11.026;2023-04-04T11:01:55;93870.69;;;13.96;10.97
39223;BME280;24936;46.328;11.026;2023-04-04T11:04:30;93857.22;;;16.02;8.95
39223;BME280;24936;46.328;11.026;2023-04-04T11:12:33;93850.81;;;17.11;7.87
39223;BME280;24936;46.328;11.026;2023-04-04T11:15:09;93853.50;;;18.02;7.53
39223;BME280;24936;46.328;11.026;2023-04-04T11:20:33;93848.69;;;17.00;9.76
39223;BME280;24936;46.328;11.026;2023-04-04T11:23:06;93843.69;;;16.62;8.11
39223;BME280;24936;46.328;11.026;2023-04-04T11:25:37;93835.78;;;18.63;9.79
39223;BME280;24936;46.328;11.026;2023-04-04T11:28:04;93853.50;;;18.09;10.04
39223;BME280;24936;46.328;11.026;2023-04-04T11:30:40;93841.06;;;17.19;10.79
39223;BME280;24936;46.328;11.026;2023-04-04T11:33:12;93839.72;;;17.01;9.90
39223;BME280;24936;46.328;11.026;2023-04-04T11:35:38;93837.84;;;15.20;10.24
39223;BME280;24936;46.328;11.026;2023-04-04T11:38:12;93830.53;;;16.54;8.76
39223;BME280;24936;46.328;11.026;2023-04-04T11:40:42;93829.09;;;17.01;10.49
39223;BME280;24936;46.328;11.026;2023-04-04T11:43:17;93821.56;;;15.53;11.26
39223;BME280;24936;46.328;11.026;2023-04-04T11:45:45;93822.03;;;16.65;9.57
39223;BME280;24936;46.328;11.026;2023-04-04T11:48:12;93820.47;;;16.99;9.03
39223;BME280;24936;46.328;11.026;2023-04-04T11:50:39;93826.59;;;15.99;11.57
39223;BME280;24936;46.328;11.026;2023-04-04T11:53:08;93833.59;;;15.70;10.23
39223;BME280;24936;46.328;11.026;2023-04-04T11:55:41;93825.63;;;15.85;8.96
39223;BME280;24936;46.328;11.026;2023-04-04T11:58:11;93832.31;;;14.61;9.22
39223;BME280;24936;46.328;11.026;2023-04-04T12:00:37;93823.72;;;15.64;9.38
39223;BME280;24936;46.328;11.026;2023-04-04T12:03:10;93822.47;;;16.40;10.11
39223;BME280;24936;46.328;11.026;2023-04-04T12:05:41;93819.19;;;15.95;8.78
39223;BME280;24936;46.328;11.026;2023-04-04T12:08:09;93817.72;;;16.35;8.91
39223;BME280;24936;46.328;11.026;2023-04-04T12:10:36;93817.38;;;14.83;9.48
39223;BME280;24936;46.328;11.026;2023-04-04T12:13:05;93808.25;;;15.68;10.28
39223;BME280;24936;46.328;11.026;2023-04-04T12:15:33;93808.50;;;16.31;10.10
39223;BME280;24936;46.328;11.026;2023-04-04T12:17:58;93801.41;;;16.67;9.29
39223;BME280;24936;46.328;11.026;2023-04-04T12:20:24;93798.94;;;16.37;8.30
39223;BME280;24936;46.328;11.026;2023-04-04T12:22:50;93801.84;;;17.34;8.55
39223;BME280;24936;46.328;11.026;2023-04-04T12:25:18;93802.88;;;16.41;9.31
39223;BME280;24936;46.328;11.026;2023-04-04T12:27:45;93795.69;;;16.35;9.93
39223;BME280;24936;46.328;11.026;2023-04-04T12:30:12;93779.06;;;17.67;12.25
39223;BME280;24936;46.328;11.026;2023-04-04T12:32:42;93785.75;;;17.49;11.80
39223;BME280;24936;46.328;11.026;2023-04-04T12:35:09;93788.59;;;16.99;10.36
39223;BME280;24936;46.328;11.026;2023-04-04T12:37:35;93766.97;;;16.24;11.26
39223;BME280;24936;46.328;11.026;2023-04-04T12:40:01;93785.16;;;15.98;10.20
39223;BME280;24936;46.328;11.026;2023-04-04T12:42:26;93781.06;;;16.02;10.15
39223;BME280;24936;46.328;11.026;2023-04-04T12:44:52;93787.00;;;15.83;10.53
39223;BME280;24936;46.328;11.026;2023-04-04T12:47:18;93778.03;;;15.84;8.73
39223;BME280;24936;46.328;11.026;2023-04-04T12:49:48;93779.53;;;16.08;9.06
39223;BME280;24936;46.328;11.026;2023-04-04T12:52:21;93775.03;;;16.37;9.41
39223;BME280;24936;46.328;11.026;2023-04-04T12:54:48;93777.00;;;16.22;9.00
39223;BME280;24936;46.328;11.026;2023-04-04T12:57:26;93773.19;;;15.51;9.89
39223;BME280;24936;46.328;11.026;2023-04-04T12:59:53;93758.41;;;16.50;11.60
39223;BME280;24936;46.328;11.026;2023-04-04T13:02:21;93758.81;;;17.66;9.09
39223;BME280;24936;46.328;11.026;2023-04-04T13:04:50;93758.41;;;17.14;8.60
39223;BME280;24936;46.328;11.026;2023-04-04T13:07:27;93762.69;;;16.01;10.68
39223;BME280;24936;46.328;11.026;2023-04-04T13:09:58;93755.38;;;15.44;10.15